createdAt,value
2018-08-10T00:00:17.433Z,17.38
2018-08-10T00:02:10.244Z,17.36
2018-08-10T00:03:10.221Z,17.24
2018-08-10T00:05:03.040Z,17.39
2018-08-10T00:06:02.980Z,17.41
2018-08-10T00:07:55.809Z,17.26
2018-08-10T00:08:55.832Z,17.31
2018-08-10T00:10:48.604Z,17.23
2018-08-10T00:11:48.557Z,17.34
2018-08-10T00:13:41.350Z,17.34
2018-08-10T00:14:41.321Z,17.33
2018-08-10T00:16:34.150Z,17.36
2018-08-10T00:17:34.100Z,17.36
2018-08-10T00:19:26.935Z,17.41
2018-08-10T00:20:26.891Z,17.41
2018-08-10T00:22:19.680Z,17.38
2018-08-10T00:23:19.668Z,17.42
2018-08-10T00:25:12.485Z,17.36
2018-08-10T00:26:12.443Z,17.39
2018-08-10T00:28:05.256Z,17.34
2018-08-10T00:29:05.217Z,17.36
2018-08-10T00:30:58.048Z,17.36
2018-08-10T00:31:58.002Z,17.34
2018-08-10T00:33:50.810Z,17.36
2018-08-10T00:34:50.777Z,17.41
2018-08-10T00:36:44.101Z,17.42
2018-08-10T00:37:44.043Z,17.38
2018-08-10T00:39:36.860Z,17.36
2018-08-10T00:40:36.827Z,17.42
2018-08-10T00:42:29.662Z,17.39
2018-08-10T00:43:29.611Z,17.34
2018-08-10T00:45:22.417Z,17.29
2018-08-10T00:46:22.424Z,17.23
2018-08-10T00:48:15.204Z,17.14
2018-08-10T00:49:15.171Z,16.99
2018-08-10T00:51:07.993Z,16.99
2018-08-10T00:52:07.946Z,17.04
2018-08-10T00:54:00.752Z,16.86
2018-08-10T00:55:00.722Z,16.91
2018-08-10T00:56:53.559Z,16.86
2018-08-10T00:57:53.508Z,16.91
2018-08-10T00:59:46.333Z,16.90
2018-08-10T01:00:46.283Z,16.87
2018-08-10T01:02:39.131Z,16.81
2018-08-10T01:03:39.064Z,16.87
2018-08-10T01:05:31.878Z,16.74
2018-08-10T01:06:31.838Z,16.72
2018-08-10T01:08:24.678Z,16.90
2018-08-10T01:09:24.616Z,16.83
2018-08-10T01:11:17.447Z,16.84
2018-08-10T01:12:17.406Z,16.74
2018-08-10T01:14:10.237Z,16.69
2018-08-10T01:15:10.219Z,16.79
2018-08-10T01:17:03.004Z,16.74
2018-08-10T01:18:02.955Z,16.71
2018-08-10T01:19:55.765Z,16.72
2018-08-10T01:20:55.734Z,16.69
2018-08-10T01:22:48.571Z,16.71
2018-08-10T01:23:48.509Z,16.76
2018-08-10T01:25:41.315Z,16.65
2018-08-10T01:26:41.283Z,16.72
2018-08-10T01:28:34.126Z,16.74
2018-08-10T01:29:34.056Z,16.74
2018-08-10T01:31:26.873Z,16.72
2018-08-10T01:32:26.838Z,16.64
2018-08-10T01:34:19.658Z,16.60
2018-08-10T01:35:19.620Z,16.53
2018-08-10T01:37:12.420Z,16.60
2018-08-10T01:38:12.380Z,16.53
2018-08-10T01:40:05.221Z,16.60
2018-08-10T01:41:05.165Z,16.53
2018-08-10T01:42:57.996Z,16.57
2018-08-10T01:43:57.940Z,16.51
2018-08-10T01:45:50.772Z,16.49
2018-08-10T01:46:50.719Z,16.57
2018-08-10T01:48:43.560Z,16.56
2018-08-10T01:49:43.523Z,16.57
2018-08-10T01:51:36.325Z,16.53
2018-08-10T01:52:36.286Z,16.56
2018-08-10T01:54:29.129Z,16.51
2018-08-10T01:55:29.080Z,16.61
2018-08-10T01:57:21.887Z,16.54
2018-08-10T01:58:21.851Z,16.60
2018-08-10T02:00:14.686Z,16.54
2018-08-10T02:01:14.640Z,16.66
2018-08-10T02:03:07.451Z,16.69
2018-08-10T02:04:07.414Z,16.68
2018-08-10T02:06:00.231Z,16.72
2018-08-10T02:07:00.190Z,16.68
2018-08-10T02:08:53.006Z,16.72
2018-08-10T02:09:52.960Z,16.74
2018-08-10T02:11:45.785Z,16.71
2018-08-10T02:12:45.746Z,16.72
2018-08-10T02:14:39.065Z,16.75
2018-08-10T02:15:39.021Z,16.66
2018-08-10T02:17:31.836Z,16.64
2018-08-10T02:18:31.801Z,16.61
2018-08-10T02:20:24.633Z,16.57
2018-08-10T02:21:24.585Z,16.53
2018-08-10T02:23:17.386Z,16.65
2018-08-10T02:24:17.352Z,16.53
2018-08-10T02:26:10.176Z,16.46
2018-08-10T02:27:10.131Z,16.42
2018-08-10T02:29:02.940Z,16.51
2018-08-10T02:30:02.905Z,16.36
2018-08-10T02:31:55.742Z,16.31
2018-08-10T02:32:55.690Z,16.32
2018-08-10T02:34:48.510Z,16.24
2018-08-10T02:35:48.453Z,16.31
2018-08-10T02:37:41.287Z,16.13
2018-08-10T02:38:41.243Z,16.16
2018-08-10T02:40:34.063Z,16.24
2018-08-10T02:41:34.013Z,16.15
2018-08-10T02:43:26.821Z,16.16
2018-08-10T02:44:26.796Z,16.28
2018-08-10T02:46:19.616Z,16.15
2018-08-10T02:47:19.566Z,16.17
2018-08-10T02:49:12.373Z,16.17
2018-08-10T02:50:12.344Z,16.15
2018-08-10T02:52:05.187Z,16.28
2018-08-10T02:53:05.119Z,16.17
2018-08-10T02:54:57.943Z,16.13
2018-08-10T02:55:57.902Z,16.15
2018-08-10T02:57:50.735Z,16.13
2018-08-10T02:58:50.697Z,16.02
2018-08-10T03:00:43.502Z,16.00
2018-08-10T03:01:43.452Z,15.91
2018-08-10T03:03:36.259Z,15.98
2018-08-10T03:04:36.232Z,16.04
2018-08-10T03:06:29.061Z,16.09
2018-08-10T03:07:29.018Z,16.12
2018-08-10T03:09:21.822Z,16.15
2018-08-10T03:10:21.773Z,16.12
2018-08-10T03:12:14.611Z,16.16
2018-08-10T03:13:14.554Z,16.15
2018-08-10T03:15:07.386Z,16.15
2018-08-10T03:16:07.332Z,16.15
2018-08-10T03:18:00.147Z,16.16
2018-08-10T03:19:00.113Z,16.24
2018-08-10T03:20:52.931Z,16.16
2018-08-10T03:21:52.893Z,16.16
2018-08-10T03:23:45.702Z,16.20
2018-08-10T03:24:45.663Z,16.26
2018-08-10T03:26:38.497Z,16.16
2018-08-10T03:27:38.444Z,16.16
2018-08-10T03:29:31.256Z,16.13
2018-08-10T03:30:31.215Z,16.16
2018-08-10T03:32:24.027Z,16.17
2018-08-10T03:33:24.003Z,16.13
2018-08-10T03:35:16.797Z,16.13
2018-08-10T03:36:16.767Z,16.10
2018-08-10T03:38:09.602Z,16.15
2018-08-10T03:39:09.547Z,16.10
2018-08-10T03:41:02.363Z,16.09
2018-08-10T03:42:02.336Z,16.09
2018-08-10T03:43:55.160Z,16.08
2018-08-10T03:44:55.098Z,16.10
2018-08-10T03:46:47.928Z,16.10
2018-08-10T03:47:47.883Z,16.01
2018-08-10T03:49:40.758Z,15.98
2018-08-10T03:50:40.652Z,15.94
2018-08-10T03:52:33.482Z,16.05
2018-08-10T03:53:33.433Z,15.97
2018-08-10T03:55:26.249Z,16.00
2018-08-10T03:56:26.204Z,15.88
2018-08-10T03:58:19.029Z,15.92
2018-08-10T03:59:18.983Z,15.94
2018-08-10T04:01:11.805Z,15.88
2018-08-10T04:02:11.765Z,15.83
2018-08-10T04:04:04.597Z,15.90
2018-08-10T04:05:04.549Z,15.77
2018-08-10T04:06:57.383Z,15.90
2018-08-10T04:07:57.313Z,15.75
2018-08-10T04:09:50.153Z,15.77
2018-08-10T04:10:50.099Z,15.77
2018-08-10T04:12:42.929Z,15.86
2018-08-10T04:13:42.879Z,15.80
2018-08-10T04:15:35.695Z,15.82
2018-08-10T04:16:35.659Z,15.77
2018-08-10T04:18:28.493Z,15.79
2018-08-10T04:19:28.439Z,15.80
2018-08-10T04:21:21.258Z,15.88
2018-08-10T04:22:21.215Z,15.83
2018-08-10T04:24:14.041Z,15.84
2018-08-10T04:25:13.998Z,15.88
2018-08-10T04:27:06.800Z,15.82
2018-08-10T04:28:06.773Z,15.88
2018-08-10T04:29:59.596Z,15.82
2018-08-10T04:30:59.546Z,15.86
2018-08-10T04:32:52.362Z,15.97
2018-08-10T04:33:52.312Z,15.95
2018-08-10T04:35:45.135Z,16.02
2018-08-10T04:36:45.101Z,15.97
2018-08-10T04:38:37.964Z,15.98
2018-08-10T04:39:37.861Z,16.04
2018-08-10T04:41:30.682Z,16.02
2018-08-10T04:42:30.647Z,16.01
2018-08-10T04:44:23.466Z,16.10
2018-08-10T04:45:23.421Z,16.01
2018-08-10T04:47:16.231Z,16.15
2018-08-10T04:48:16.213Z,16.15
2018-08-10T04:50:09.030Z,16.24
2018-08-10T04:51:08.972Z,16.17
2018-08-10T04:53:01.776Z,16.15
2018-08-10T04:54:01.740Z,16.21
2018-08-10T04:55:54.566Z,16.20
2018-08-10T04:56:54.520Z,16.13
2018-08-10T04:58:47.361Z,16.15
2018-08-10T04:59:47.301Z,16.23
2018-08-10T05:01:40.117Z,16.10
2018-08-10T05:02:40.082Z,16.29
2018-08-10T05:04:32.906Z,16.32
2018-08-10T05:05:32.845Z,16.23
2018-08-10T05:07:25.652Z,16.29
2018-08-10T05:08:25.626Z,16.17
2018-08-10T05:10:18.448Z,16.28
2018-08-10T05:11:18.417Z,16.24
2018-08-10T05:13:11.219Z,16.32
2018-08-10T05:14:11.164Z,16.35
2018-08-10T05:16:04.054Z,16.29
2018-08-10T05:17:03.966Z,16.28
2018-08-10T05:18:56.758Z,16.38
2018-08-10T05:19:56.733Z,16.39
2018-08-10T05:21:49.558Z,16.36
2018-08-10T05:22:49.519Z,16.33
2018-08-10T05:24:42.341Z,16.46
2018-08-10T05:25:42.283Z,16.41
2018-08-10T05:27:35.113Z,16.38
2018-08-10T05:28:35.071Z,16.43
2018-08-10T05:30:27.898Z,16.43
2018-08-10T05:31:27.848Z,16.38
2018-08-10T05:33:20.662Z,16.47
2018-08-10T05:34:20.617Z,16.50
2018-08-10T05:36:13.449Z,16.50
2018-08-10T05:37:13.393Z,16.53
2018-08-10T05:39:06.709Z,16.58
2018-08-10T05:40:06.679Z,16.54
2018-08-10T05:41:59.499Z,16.41
2018-08-10T05:42:59.462Z,16.51
2018-08-10T05:44:52.272Z,16.60
2018-08-10T05:45:52.233Z,16.69
2018-08-10T05:47:45.059Z,16.58
2018-08-10T05:48:45.013Z,16.65
2018-08-10T05:50:37.837Z,16.66
2018-08-10T05:51:37.793Z,16.66
2018-08-10T05:53:30.604Z,16.66
2018-08-10T05:54:30.576Z,16.64
2018-08-10T05:56:23.400Z,16.83
2018-08-10T05:57:23.347Z,16.86
2018-08-10T05:59:16.150Z,16.94
2018-08-10T06:00:16.119Z,16.81
2018-08-10T06:02:08.943Z,16.89
2018-08-10T06:03:08.893Z,16.96
2018-08-10T06:05:01.710Z,16.96
2018-08-10T06:06:01.681Z,17.01
2018-08-10T06:07:54.498Z,17.02
2018-08-10T06:08:54.445Z,17.04
2018-08-10T06:10:47.253Z,17.04
2018-08-10T06:11:47.215Z,17.09
2018-08-10T06:13:40.039Z,17.14
2018-08-10T06:14:39.988Z,17.20
2018-08-10T06:16:32.799Z,17.22
2018-08-10T06:17:32.785Z,17.24
2018-08-10T06:19:25.610Z,17.34
2018-08-10T06:20:25.544Z,17.36
2018-08-10T06:22:18.374Z,17.52
2018-08-10T06:23:18.327Z,17.51
2018-08-10T06:25:11.260Z,17.54
2018-08-10T06:26:11.115Z,17.46
2018-08-10T06:28:03.947Z,17.59
2018-08-10T06:29:03.906Z,17.65
2018-08-10T06:30:56.729Z,17.64
2018-08-10T06:31:56.719Z,17.71
2018-08-10T06:33:49.586Z,17.83
2018-08-10T06:34:49.470Z,17.82
2018-08-10T06:36:42.299Z,17.87
2018-08-10T06:37:42.249Z,17.90
2018-08-10T06:39:35.081Z,17.97
2018-08-10T06:40:35.016Z,18.00
2018-08-10T06:42:27.835Z,18.10
2018-08-10T06:43:27.806Z,18.08
2018-08-10T06:45:20.678Z,18.08
2018-08-10T06:46:20.580Z,18.10
2018-08-10T06:48:13.411Z,18.10
2018-08-10T06:49:13.361Z,18.11
2018-08-10T06:51:06.202Z,18.15
2018-08-10T06:52:06.159Z,18.08
2018-08-10T06:53:58.972Z,18.15
2018-08-10T06:54:58.916Z,18.26
2018-08-10T06:56:51.732Z,18.25
2018-08-10T06:57:51.699Z,18.33
2018-08-10T06:59:44.544Z,18.31
2018-08-10T07:00:44.535Z,18.34
2018-08-10T07:02:37.289Z,18.38
2018-08-10T07:03:37.255Z,18.43
2018-08-10T07:05:30.088Z,18.47
2018-08-10T07:06:30.046Z,18.58
2018-08-10T07:08:22.868Z,18.56
2018-08-10T07:09:22.822Z,18.45
2018-08-10T07:11:15.642Z,18.63
2018-08-10T07:12:15.594Z,18.70
2018-08-10T07:14:08.444Z,18.78
2018-08-10T07:15:08.392Z,18.70
2018-08-10T07:17:01.210Z,18.77
2018-08-10T07:18:01.151Z,18.84
2018-08-10T07:19:53.987Z,18.88
2018-08-10T07:20:53.947Z,18.81
2018-08-10T07:22:46.803Z,18.98
2018-08-10T07:23:46.742Z,18.98
2018-08-10T07:25:39.563Z,18.95
2018-08-10T07:26:39.511Z,18.96
2018-08-10T07:28:32.342Z,19.00
2018-08-10T07:29:32.298Z,19.09
2018-08-10T07:31:25.127Z,19.07
2018-08-10T07:32:25.097Z,19.08
2018-08-10T07:34:17.916Z,19.09
2018-08-10T07:35:17.867Z,19.09
2018-08-10T07:37:11.196Z,19.30
2018-08-10T07:38:11.138Z,19.26
2018-08-10T07:40:03.954Z,19.21
2018-08-10T07:41:03.929Z,19.19
2018-08-10T07:42:56.762Z,19.19
2018-08-10T07:43:56.709Z,19.22
2018-08-10T07:45:50.017Z,19.44
2018-08-10T07:46:49.979Z,19.44
2018-08-10T07:48:42.812Z,19.55
2018-08-10T07:49:42.753Z,19.51
2018-08-10T07:51:35.589Z,19.30
2018-08-10T07:52:35.535Z,19.36
2018-08-10T07:54:28.362Z,19.33
2018-08-10T07:55:28.325Z,19.47
2018-08-10T07:57:21.139Z,19.48
2018-08-10T07:58:21.109Z,19.40
2018-08-10T08:00:13.919Z,19.51
2018-08-10T08:01:13.869Z,19.58
2018-08-10T08:03:07.270Z,19.67
2018-08-10T08:04:07.161Z,19.63
2018-08-10T08:05:59.990Z,19.55
2018-08-10T08:06:59.966Z,19.52
2018-08-10T08:08:52.782Z,19.33
2018-08-10T08:09:52.716Z,19.44
2018-08-10T08:11:46.042Z,19.59
2018-08-10T08:12:46.013Z,19.56
2018-08-10T08:14:38.836Z,19.40
2018-08-10T08:15:38.790Z,19.47
2018-08-10T08:17:31.615Z,19.52
2018-08-10T08:18:31.575Z,19.58
2018-08-10T08:20:24.389Z,19.55
2018-08-10T08:21:24.351Z,19.58
2018-08-10T08:23:17.185Z,19.67
2018-08-10T08:24:17.139Z,19.63
2018-08-10T08:26:09.946Z,19.77
2018-08-10T08:27:09.932Z,19.89
2018-08-10T08:29:02.751Z,19.99
2018-08-10T08:30:02.703Z,20.03
2018-08-10T08:31:55.522Z,20.06
2018-08-10T08:32:55.499Z,20.09
2018-08-10T08:34:48.376Z,20.10
2018-08-10T08:35:48.270Z,20.14
2018-08-10T08:37:41.579Z,20.00
2018-08-10T08:38:41.556Z,19.99
2018-08-10T08:40:34.385Z,20.11
2018-08-10T08:41:34.337Z,20.21
2018-08-10T08:43:27.155Z,20.37
2018-08-10T08:44:27.121Z,20.29
2018-08-10T08:46:20.117Z,20.40
2018-08-10T08:47:19.911Z,20.43
2018-08-10T08:49:12.720Z,20.31
2018-08-10T08:50:12.715Z,20.48
2018-08-10T08:52:05.518Z,20.41
2018-08-10T08:53:05.465Z,20.51
2018-08-10T08:54:58.821Z,20.85
2018-08-10T08:55:58.742Z,20.81
2018-08-10T08:57:52.549Z,21.05
2018-08-10T08:58:52.520Z,20.95
2018-08-10T09:00:45.356Z,21.09
2018-08-10T09:01:45.311Z,21.07
2018-08-10T09:03:38.131Z,21.11
2018-08-10T09:04:38.096Z,21.21
2018-08-10T09:06:30.932Z,21.05
2018-08-10T09:07:30.899Z,21.06
2018-08-10T09:09:23.701Z,21.20
2018-08-10T09:10:23.667Z,21.29
2018-08-10T09:12:16.494Z,21.32
2018-08-10T09:13:16.453Z,21.29
2018-08-10T09:15:09.267Z,21.37
2018-08-10T09:16:09.238Z,21.39
2018-08-10T09:18:02.063Z,21.36
2018-08-10T09:19:02.038Z,21.40
2018-08-10T09:20:54.858Z,21.48
2018-08-10T09:21:54.821Z,21.54
2018-08-10T09:23:47.652Z,21.70
2018-08-10T09:24:47.593Z,21.72
2018-08-10T09:26:40.460Z,21.62
2018-08-10T09:27:40.368Z,21.77
2018-08-10T09:29:33.188Z,21.91
2018-08-10T09:30:33.162Z,21.98
2018-08-10T09:32:26.983Z,22.04
2018-08-10T09:33:26.942Z,22.02
2018-08-10T09:35:19.758Z,21.72
2018-08-10T09:36:19.743Z,21.83
2018-08-10T09:38:12.551Z,21.95
2018-08-10T09:39:12.504Z,22.07
2018-08-10T09:41:05.313Z,22.14
2018-08-10T09:42:05.307Z,22.26
2018-08-10T09:43:58.133Z,22.28
2018-08-10T09:44:58.067Z,22.28
2018-08-10T09:46:50.880Z,22.38
2018-08-10T09:47:50.857Z,22.43
2018-08-10T09:49:43.700Z,22.51
2018-08-10T09:50:43.634Z,22.57
2018-08-10T09:52:36.478Z,22.20
2018-08-10T09:53:36.422Z,22.14
2018-08-10T09:55:29.304Z,22.22
2018-08-10T09:56:29.256Z,22.43
2018-08-10T09:58:22.083Z,22.28
2018-08-10T09:59:22.041Z,22.44
2018-08-10T10:01:14.859Z,22.26
2018-08-10T10:02:14.819Z,22.18
2018-08-10T10:04:07.660Z,22.10
2018-08-10T10:05:07.598Z,21.95
2018-08-10T10:07:00.463Z,22.23
2018-08-10T10:08:00.430Z,22.60
2018-08-10T10:09:53.265Z,22.85
2018-08-10T10:10:53.218Z,22.99
2018-08-10T10:12:46.054Z,22.78
2018-08-10T10:13:46.015Z,22.75
2018-08-10T10:15:38.832Z,22.69
2018-08-10T10:16:38.788Z,22.51
2018-08-10T10:18:31.624Z,23.15
2018-08-10T10:19:31.583Z,23.62
2018-08-10T10:21:24.404Z,23.93
2018-08-10T10:22:24.379Z,24.17
2018-08-10T10:24:17.228Z,24.28
2018-08-10T10:25:17.174Z,24.73
2018-08-10T10:27:10.028Z,25.14
2018-08-10T10:28:09.969Z,24.84
2018-08-10T10:30:02.810Z,24.84
2018-08-10T10:31:02.764Z,25.23
2018-08-10T10:32:55.589Z,25.40
2018-08-10T10:33:55.563Z,25.35
2018-08-10T10:35:48.416Z,25.78
2018-08-10T10:36:48.363Z,26.00
2018-08-10T10:38:41.204Z,26.31
2018-08-10T10:39:41.166Z,26.44
2018-08-10T10:41:34.168Z,26.09
2018-08-10T10:42:33.966Z,26.03
2018-08-10T10:44:26.814Z,26.28
2018-08-10T10:45:26.786Z,26.03
2018-08-10T10:47:19.669Z,25.54
2018-08-10T10:48:19.570Z,25.51
2018-08-10T10:50:12.406Z,25.58
2018-08-10T10:51:12.379Z,25.58
2018-08-10T10:53:05.224Z,25.87
2018-08-10T10:54:05.169Z,25.65
2018-08-10T10:55:58.020Z,26.26
2018-08-10T10:56:58.025Z,26.73
2018-08-10T10:58:50.798Z,26.29
2018-08-10T10:59:50.778Z,26.66
2018-08-10T11:01:43.620Z,27.33
2018-08-10T11:02:43.580Z,27.35
2018-08-10T11:04:36.421Z,27.17
2018-08-10T11:05:36.381Z,26.65
2018-08-10T11:07:29.254Z,26.28
2018-08-10T11:08:29.202Z,25.95
2018-08-10T11:10:22.021Z,26.06
2018-08-10T11:11:22.001Z,25.93
2018-08-10T11:13:14.850Z,25.63
2018-08-10T11:14:14.796Z,25.35
2018-08-10T11:16:07.655Z,25.32
2018-08-10T11:17:07.596Z,25.40
2018-08-10T11:19:00.467Z,25.48
2018-08-10T11:20:00.445Z,25.69
2018-08-10T11:21:53.276Z,26.07
2018-08-10T11:22:53.236Z,26.05
2018-08-10T11:24:46.056Z,26.21
2018-08-10T11:25:46.178Z,26.41
2018-08-10T11:27:38.879Z,26.25
2018-08-10T11:28:38.837Z,26.13
2018-08-10T11:30:31.665Z,25.51
2018-08-10T11:31:31.640Z,25.22
2018-08-10T11:33:24.501Z,24.69
2018-08-10T11:34:24.446Z,24.43
2018-08-10T11:36:17.270Z,24.91
2018-08-10T11:37:17.246Z,25.16
2018-08-10T11:39:10.083Z,24.76
2018-08-10T11:40:10.034Z,24.76
2018-08-10T11:42:02.871Z,25.21
2018-08-10T11:43:02.835Z,25.59
2018-08-10T11:44:55.699Z,25.73
2018-08-10T11:45:55.628Z,26.18
2018-08-10T11:47:48.462Z,26.45
2018-08-10T11:48:48.426Z,26.33
2018-08-10T11:50:41.258Z,26.75
2018-08-10T11:51:41.223Z,26.28
2018-08-10T11:53:34.073Z,26.80
2018-08-10T11:54:34.028Z,26.85
2018-08-10T11:56:26.862Z,26.51
2018-08-10T11:57:26.897Z,26.34
2018-08-10T11:59:19.673Z,25.96
2018-08-10T12:00:19.638Z,25.90
2018-08-10T12:02:12.468Z,26.47
2018-08-10T12:03:12.442Z,26.66
2018-08-10T12:05:05.276Z,26.58
2018-08-10T12:06:05.358Z,26.92
2018-08-10T12:07:58.042Z,27.12
2018-08-10T12:08:58.029Z,27.20
2018-08-10T12:10:50.861Z,27.42
2018-08-10T12:11:50.828Z,27.26
2018-08-10T12:13:43.672Z,27.60
2018-08-10T12:14:43.632Z,27.68
2018-08-10T12:16:36.454Z,27.65
2018-08-10T12:17:36.425Z,27.68
2018-08-10T12:19:29.279Z,27.80
2018-08-10T12:20:29.238Z,27.67
2018-08-10T12:22:22.063Z,27.80
2018-08-10T12:23:22.035Z,27.96
2018-08-10T12:25:14.893Z,27.82
2018-08-10T12:26:14.850Z,28.01
2018-08-10T12:28:07.669Z,27.89
2018-08-10T12:29:07.647Z,27.42
2018-08-10T12:31:00.499Z,27.45
2018-08-10T12:32:00.458Z,27.36
2018-08-10T12:33:53.279Z,27.64
2018-08-10T12:34:53.248Z,27.98
2018-08-10T12:36:46.105Z,28.08
2018-08-10T12:37:46.058Z,28.15
2018-08-10T12:39:38.888Z,28.22
2018-08-10T12:40:38.843Z,28.45
2018-08-10T12:42:31.705Z,28.94
2018-08-10T12:43:31.665Z,28.56
2018-08-10T12:45:24.505Z,28.05
2018-08-10T12:46:24.467Z,27.95
2018-08-10T12:48:17.293Z,28.10
2018-08-10T12:49:17.265Z,28.04
2018-08-10T12:51:10.605Z,28.25
2018-08-10T12:52:10.563Z,28.10
2018-08-10T12:54:03.401Z,27.68
2018-08-10T12:55:03.374Z,27.39
2018-08-10T12:56:56.218Z,27.25
2018-08-10T12:57:56.160Z,27.08
2018-08-10T12:59:49.000Z,26.56
2018-08-10T13:00:48.970Z,26.70
2018-08-10T13:02:41.908Z,26.95
2018-08-10T13:03:41.784Z,27.18
2018-08-10T13:05:34.615Z,26.41
2018-08-10T13:06:34.571Z,26.38
2018-08-10T13:08:27.411Z,26.45
2018-08-10T13:09:27.387Z,26.93
2018-08-10T13:11:20.237Z,27.00
2018-08-10T13:12:20.185Z,26.73
2018-08-10T13:14:13.004Z,26.66
2018-08-10T13:15:12.980Z,26.88
2018-08-10T13:17:05.816Z,26.51
2018-08-10T13:18:05.781Z,26.45
2018-08-10T13:19:58.601Z,26.74
2018-08-10T13:20:58.577Z,27.18
2018-08-10T13:22:51.412Z,26.65
2018-08-10T13:23:51.445Z,26.40
2018-08-10T13:25:44.215Z,26.28
2018-08-10T13:26:44.180Z,26.31
2018-08-10T13:28:37.036Z,26.36
2018-08-10T13:29:37.017Z,26.48
2018-08-10T13:31:30.734Z,26.15
2018-08-10T13:32:30.699Z,26.18
2018-08-10T13:34:23.556Z,26.51
2018-08-10T13:35:23.552Z,26.60
2018-08-10T13:37:16.423Z,26.68
2018-08-10T13:38:16.478Z,26.90
2018-08-10T13:40:09.403Z,27.52
2018-08-10T13:41:09.221Z,27.45
2018-08-10T13:43:01.981Z,27.39
2018-08-10T13:44:01.933Z,27.63
2018-08-10T13:45:54.770Z,27.64
2018-08-10T13:46:54.746Z,27.73
2018-08-10T13:48:47.582Z,28.11
2018-08-10T13:49:47.541Z,27.64
2018-08-10T13:51:40.377Z,27.74
2018-08-10T13:52:40.351Z,27.77
2018-08-10T13:54:34.795Z,27.39
2018-08-10T13:55:33.155Z,27.49
2018-08-10T13:57:25.996Z,27.65
2018-08-10T13:58:25.965Z,27.64
2018-08-10T14:00:18.822Z,27.42
2018-08-10T14:01:18.773Z,27.63
2018-08-10T14:03:11.606Z,27.65
2018-08-10T14:04:11.577Z,27.67
2018-08-10T14:06:04.463Z,27.74
2018-08-10T14:07:04.403Z,27.90
2018-08-10T14:08:57.238Z,28.57
2018-08-10T14:09:57.193Z,28.51
2018-08-10T14:11:50.052Z,28.49
2018-08-10T14:12:50.007Z,28.38
2018-08-10T14:14:42.838Z,27.68
2018-08-10T14:15:42.809Z,27.37
2018-08-10T14:17:35.633Z,26.26
2018-08-10T14:18:35.597Z,26.18
2018-08-10T14:20:28.447Z,26.73
2018-08-10T14:21:28.394Z,26.92
2018-08-10T14:23:21.222Z,27.14
2018-08-10T14:24:21.199Z,27.59
2018-08-10T14:26:14.022Z,28.12
2018-08-10T14:27:13.994Z,28.12
2018-08-10T14:29:07.644Z,28.17
2018-08-10T14:30:06.802Z,28.19
2018-08-10T14:31:59.653Z,27.95
2018-08-10T14:32:59.588Z,27.70
2018-08-10T14:34:52.417Z,27.39
2018-08-10T14:35:52.399Z,27.45
2018-08-10T14:37:45.245Z,27.87
2018-08-10T14:38:45.195Z,28.01
2018-08-10T14:40:38.055Z,27.40
2018-08-10T14:41:38.002Z,27.30
2018-08-10T14:43:30.868Z,26.95
2018-08-10T14:44:30.803Z,27.07
2018-08-10T14:46:23.667Z,27.48
2018-08-10T14:47:23.605Z,27.80
2018-08-10T14:49:16.464Z,28.10
2018-08-10T14:50:16.437Z,28.20
2018-08-10T14:52:09.274Z,28.01
2018-08-10T14:53:09.247Z,27.83
2018-08-10T14:55:02.079Z,28.00
2018-08-10T14:56:02.045Z,27.73
2018-08-10T14:57:54.885Z,27.25
2018-08-10T14:58:54.843Z,26.80
2018-08-10T15:00:47.766Z,26.73
2018-08-10T15:01:47.636Z,26.88
2018-08-10T15:03:40.495Z,27.18
2018-08-10T15:04:40.448Z,26.66
2018-08-10T15:06:33.375Z,26.70
2018-08-10T15:07:33.240Z,26.56
2018-08-10T15:09:26.075Z,26.56
2018-08-10T15:10:26.029Z,26.55
2018-08-10T15:12:19.230Z,26.55
2018-08-10T15:13:18.846Z,26.41
2018-08-10T15:15:11.707Z,26.23
2018-08-10T15:16:11.639Z,26.18
2018-08-10T15:18:04.479Z,25.88
2018-08-10T15:19:04.451Z,25.75
2018-08-10T15:20:57.269Z,25.65
2018-08-10T15:21:57.240Z,25.65
2018-08-10T15:23:50.070Z,25.54
2018-08-10T15:24:50.094Z,25.33
2018-08-10T15:26:42.844Z,25.36
2018-08-10T15:27:42.821Z,25.36
2018-08-10T15:29:35.662Z,25.36
2018-08-10T15:30:35.663Z,25.38
2018-08-10T15:32:28.486Z,25.03
2018-08-10T15:33:28.435Z,25.14
2018-08-10T15:35:21.276Z,25.38
2018-08-10T15:36:21.240Z,25.23
2018-08-10T15:38:14.140Z,25.16
2018-08-10T15:39:14.032Z,25.04
2018-08-10T15:41:06.837Z,24.77
2018-08-10T15:42:06.807Z,24.93
2018-08-10T15:43:59.647Z,24.70
2018-08-10T15:44:59.595Z,24.77
2018-08-10T15:46:52.917Z,24.60
2018-08-10T15:47:52.890Z,24.53
2018-08-10T15:49:45.769Z,24.96
2018-08-10T15:50:45.671Z,25.23
2018-08-10T15:52:39.003Z,25.21
2018-08-10T15:53:38.971Z,25.07
2018-08-10T15:55:31.807Z,24.98
2018-08-10T15:56:31.765Z,24.99
2018-08-10T15:58:24.596Z,25.51
2018-08-10T15:59:24.559Z,25.65
2018-08-10T16:01:17.899Z,25.73
2018-08-10T16:02:17.852Z,25.90
2018-08-10T16:04:10.683Z,25.50
2018-08-10T16:05:10.646Z,25.25
2018-08-10T16:07:03.483Z,25.10
2018-08-10T16:08:03.446Z,25.04
2018-08-10T16:09:56.785Z,24.73
2018-08-10T16:10:56.763Z,24.68
2018-08-10T16:12:49.553Z,24.60
2018-08-10T16:13:49.526Z,24.51
2018-08-10T16:15:42.362Z,24.38
2018-08-10T16:16:42.338Z,24.39
2018-08-10T16:18:35.143Z,24.53
2018-08-10T16:19:35.113Z,24.48
2018-08-10T16:21:28.106Z,24.43
2018-08-10T16:22:28.082Z,24.50
2018-08-10T16:24:20.956Z,24.32
2018-08-10T16:25:20.924Z,24.20
2018-08-10T16:27:13.813Z,24.16
2018-08-10T16:28:13.781Z,24.10
2018-08-10T16:30:07.101Z,24.11
2018-08-10T16:31:07.085Z,24.06
2018-08-10T16:32:59.915Z,23.95
2018-08-10T16:33:59.865Z,24.08
2018-08-10T16:35:52.733Z,24.21
2018-08-10T16:36:52.667Z,24.23
2018-08-10T16:38:45.479Z,24.36
2018-08-10T16:39:45.434Z,24.36
2018-08-10T16:41:38.287Z,24.32
2018-08-10T16:42:38.219Z,24.53
2018-08-10T16:44:31.105Z,24.81
2018-08-10T16:45:31.014Z,25.04
2018-08-10T16:47:23.858Z,25.28
2018-08-10T16:48:23.814Z,25.35
2018-08-10T16:50:16.638Z,25.25
2018-08-10T16:51:16.618Z,25.36
2018-08-10T16:53:09.450Z,25.51
2018-08-10T16:54:09.408Z,25.54
2018-08-10T16:56:02.228Z,25.47
2018-08-10T16:57:02.210Z,25.55
2018-08-10T16:58:55.030Z,25.54
2018-08-10T16:59:54.995Z,25.54
2018-08-10T17:01:47.839Z,25.66
2018-08-10T17:02:47.863Z,25.53
2018-08-10T17:04:40.601Z,25.28
2018-08-10T17:05:40.570Z,25.11
2018-08-10T17:07:33.434Z,24.77
2018-08-10T17:08:33.372Z,24.55
2018-08-10T17:10:27.195Z,24.51
2018-08-10T17:11:27.185Z,24.28
2018-08-10T17:13:20.985Z,24.36
2018-08-10T17:14:20.959Z,24.42
2018-08-10T17:16:13.783Z,24.33
2018-08-10T17:17:13.732Z,24.21
2018-08-10T17:19:06.583Z,24.36
2018-08-10T17:20:06.529Z,24.42
2018-08-10T17:21:59.354Z,24.39
2018-08-10T17:22:59.325Z,24.57
2018-08-10T17:24:52.171Z,24.68
2018-08-10T17:25:52.118Z,24.61
2018-08-10T17:27:44.947Z,24.88
2018-08-10T17:28:44.917Z,24.76
2018-08-10T17:30:37.761Z,24.91
2018-08-10T17:31:37.718Z,24.89
2018-08-10T17:33:30.528Z,24.53
2018-08-10T17:34:30.494Z,24.51
2018-08-10T17:36:23.835Z,24.24
2018-08-10T17:37:23.781Z,24.28
2018-08-10T17:39:16.726Z,24.36
2018-08-10T17:40:16.580Z,24.43
2018-08-10T17:42:09.386Z,24.40
2018-08-10T17:43:09.361Z,24.28
2018-08-10T17:45:02.341Z,24.20
2018-08-10T17:46:02.158Z,24.13
2018-08-10T17:47:54.986Z,24.08
2018-08-10T17:48:54.941Z,23.99
2018-08-10T17:50:47.790Z,23.86
2018-08-10T17:51:47.739Z,23.86
2018-08-10T17:53:40.621Z,23.83
2018-08-10T17:54:40.585Z,23.87
2018-08-10T17:56:33.425Z,23.99
2018-08-10T17:57:33.470Z,23.96
2018-08-10T17:59:26.211Z,23.95
2018-08-10T18:00:26.178Z,23.87
2018-08-10T18:02:19.005Z,23.88
2018-08-10T18:03:18.980Z,23.73
2018-08-10T18:05:11.791Z,23.62
2018-08-10T18:06:11.751Z,23.50
2018-08-10T18:08:04.596Z,23.36
2018-08-10T18:09:04.555Z,23.36
2018-08-10T18:10:58.386Z,23.24
2018-08-10T18:11:58.337Z,23.32
2018-08-10T18:13:51.179Z,23.08
2018-08-10T18:14:51.126Z,22.98
2018-08-10T18:16:43.955Z,22.96
2018-08-10T18:17:43.909Z,22.88
2018-08-10T18:19:36.721Z,22.85
2018-08-10T18:20:36.704Z,22.88
2018-08-10T18:22:29.518Z,22.87
2018-08-10T18:23:29.476Z,22.88
2018-08-10T18:25:22.286Z,22.80
2018-08-10T18:26:22.271Z,22.87
2018-08-10T18:28:15.225Z,22.80
2018-08-10T18:29:15.166Z,22.88
2018-08-10T18:31:08.046Z,22.76
2018-08-10T18:32:07.968Z,22.75